KCLT

Charlotte / Douglas International Airport

Charlotte, North Carolina, USA
METAR KCLT 141252Z 32005KT 10SM FEW060 FEW090 FEW250 24/22 A3005 RMK AO2 SLP167 T02440222
Observed Flight Rules
Aug-14 @ 12:52 UTC (52 minutes ago) Visual Flight Rules
Wind Visibility Clouds
320° at 5 knots 10 miles
  • Few at 6,000' AGL
  • Few at 9,000' AGL
  • Few at 25,000' AGL
Temperatures Readings
Current 24°C / 75°F
Dewpoint 22°C / 72°F
Humidity 89%
Altimeter 30.05" Hg
Pressure 1016.7 hPa
Elevation 220
METAR KCLT 141252Z 32005KT 10SM FEW060 FEW090 FEW250 24/22 A3005 RMK AO2 SLP167 T02440222
Observed Flight Rules
Aug-14 @ 12:52 UTC
(52 minutes ago)
VFR
Wind Visibility
320° at 5 knots 10 miles
Clouds
  • Few at 6,000' AGL
  • Few at 9,000' AGL
  • Few at 25,000' AGL
Temperature Dewpoint
24°C / 75°F 22°C / 72°F
Humidity Altimeter Pressure
89% 30.05" Hg 1016.7 hPa